createdAt,value
2022-11-24T00:01:23.736Z,9.60
2022-11-24T00:03:55.317Z,9.50
2022-11-24T00:06:24.330Z,9.60
2022-11-24T00:08:52.961Z,9.60
2022-11-24T00:11:23.185Z,9.50
2022-11-24T00:13:52.009Z,9.60
2022-11-24T00:16:23.686Z,9.60
2022-11-24T00:18:53.949Z,9.60
2022-11-24T00:21:22.649Z,9.50
2022-11-24T00:23:51.489Z,9.60
2022-11-24T00:26:21.689Z,9.60
2022-11-24T00:28:51.183Z,9.60
2022-11-24T00:31:22.757Z,9.60
2022-11-24T00:33:53.335Z,9.60
2022-11-24T00:36:22.959Z,9.60
2022-11-24T00:38:55.927Z,9.70
2022-11-24T00:41:24.802Z,9.70
2022-11-24T00:43:52.995Z,9.60
2022-11-24T00:46:22.910Z,9.60
2022-11-24T00:48:51.737Z,9.70
2022-11-24T00:51:21.270Z,9.70
2022-11-24T00:53:49.938Z,9.70
2022-11-24T00:56:18.494Z,9.70
2022-11-24T00:58:46.990Z,9.70
2022-11-24T01:01:17.652Z,9.80
2022-11-24T01:03:47.891Z,9.70
2022-11-24T01:06:17.732Z,9.70
2022-11-24T01:08:46.611Z,9.70
2022-11-24T01:11:16.812Z,9.70
2022-11-24T01:13:46.544Z,9.70
2022-11-24T01:16:16.842Z,9.80
2022-11-24T01:18:46.545Z,9.70
2022-11-24T01:21:15.256Z,9.80
2022-11-24T01:23:43.982Z,9.70
2022-11-24T01:26:15.144Z,9.70
2022-11-24T01:28:46.944Z,9.80
2022-11-24T01:31:17.369Z,9.90
2022-11-24T01:33:47.309Z,9.90
2022-11-24T01:36:15.797Z,9.80
2022-11-24T01:38:44.139Z,9.80
2022-11-24T01:41:14.193Z,9.90
2022-11-24T01:43:43.471Z,9.90
2022-11-24T01:46:20.949Z,10.00
2022-11-24T01:48:54.085Z,10.00
2022-11-24T01:51:26.356Z,9.90
2022-11-24T01:54:02.039Z,10.00
2022-11-24T01:56:31.961Z,9.90
2022-11-24T01:59:03.821Z,9.90
2022-11-24T02:01:32.525Z,9.90
2022-11-24T02:04:05.025Z,9.90
2022-11-24T02:06:35.957Z,9.90
2022-11-24T02:09:09.692Z,9.90
2022-11-24T02:11:39.137Z,9.70
2022-11-24T02:14:11.128Z,9.50
2022-11-24T02:16:40.596Z,9.40
2022-11-24T02:19:17.490Z,9.30
2022-11-24T02:21:45.986Z,9.30
2022-11-24T02:24:21.027Z,9.20
2022-11-24T02:26:52.267Z,9.10
2022-11-24T02:29:21.510Z,9.00
2022-11-24T02:31:52.231Z,9.10
2022-11-24T02:34:20.838Z,9.00
2022-11-24T02:36:49.054Z,9.00
2022-11-24T02:39:17.769Z,8.90
2022-11-24T02:41:51.680Z,8.90
2022-11-24T02:44:23.192Z,8.80
2022-11-24T02:47:02.523Z,8.70
2022-11-24T02:49:30.858Z,8.70
2022-11-24T02:51:59.203Z,8.80
2022-11-24T02:54:27.786Z,8.70
2022-11-24T02:56:56.334Z,8.80
2022-11-24T02:59:25.883Z,8.70
2022-11-24T03:01:54.749Z,8.80
2022-11-24T03:04:23.120Z,8.80
2022-11-24T03:06:51.421Z,8.90
2022-11-24T03:09:19.836Z,8.80
2022-11-24T03:11:47.995Z,8.90
2022-11-24T03:14:16.149Z,9.00
2022-11-24T03:16:45.717Z,9.00
2022-11-24T03:19:14.122Z,9.00
2022-11-24T03:21:42.275Z,9.00
2022-11-24T03:24:10.812Z,9.00
2022-11-24T03:26:39.071Z,9.00
2022-11-24T03:29:07.260Z,9.10
2022-11-24T03:31:36.128Z,9.10
2022-11-24T03:34:05.850Z,9.00
2022-11-24T03:36:34.031Z,9.00
2022-11-24T03:39:02.547Z,9.00
2022-11-24T03:41:30.915Z,9.00
2022-11-24T03:43:59.041Z,9.00
2022-11-24T03:46:27.273Z,8.90
2022-11-24T03:48:55.586Z,8.90
2022-11-24T03:51:25.059Z,8.90
2022-11-24T03:53:53.548Z,8.90
2022-11-24T03:56:21.864Z,8.90
2022-11-24T03:58:50.238Z,9.00
2022-11-24T04:01:18.719Z,8.90
2022-11-24T04:03:47.300Z,8.80
2022-11-24T04:06:15.402Z,8.80
2022-11-24T04:08:45.132Z,8.90
2022-11-24T04:11:33.876Z,8.90
2022-11-24T04:14:01.455Z,8.80
2022-11-24T04:16:29.787Z,8.80
2022-11-24T04:18:57.907Z,8.80
2022-11-24T04:21:26.753Z,8.80
2022-11-24T04:23:56.288Z,8.80
2022-11-24T04:26:24.509Z,8.80
2022-11-24T04:28:53.426Z,8.80
2022-11-24T04:31:21.583Z,8.70
2022-11-24T04:33:50.204Z,8.70
2022-11-24T04:36:18.722Z,8.70
2022-11-24T04:39:23.421Z,8.80
2022-11-24T04:41:36.818Z,8.70
2022-11-24T04:44:05.125Z,8.80
2022-11-24T04:46:33.280Z,8.80
2022-11-24T04:49:02.609Z,8.80
2022-11-24T04:51:30.780Z,8.70
2022-11-24T04:53:58.961Z,8.70
2022-11-24T04:56:27.379Z,8.70
2022-11-24T04:58:57.086Z,8.70
2022-11-24T05:01:25.255Z,8.70
2022-11-24T05:03:55.329Z,8.60
2022-11-24T05:06:24.385Z,8.60
2022-11-24T05:08:53.535Z,8.60
2022-11-24T05:11:21.860Z,8.60
2022-11-24T05:13:50.496Z,8.60
2022-11-24T05:16:20.196Z,8.50
2022-11-24T05:18:48.576Z,8.60
2022-11-24T05:21:17.014Z,8.50
2022-11-24T05:23:45.204Z,8.60
2022-11-24T05:26:13.690Z,8.60
2022-11-24T05:28:42.140Z,8.50
2022-11-24T05:31:10.468Z,8.60
2022-11-24T05:33:40.795Z,8.60
2022-11-24T05:36:29.749Z,8.60
2022-11-24T05:38:58.213Z,8.50
2022-11-24T05:41:26.386Z,8.50
2022-11-24T05:43:54.529Z,8.50
2022-11-24T05:46:22.929Z,8.50
2022-11-24T05:48:52.788Z,8.50
2022-11-24T05:51:20.940Z,8.50
2022-11-24T05:53:49.234Z,8.50
2022-11-24T05:56:17.430Z,8.50
2022-11-24T05:58:45.784Z,8.60
2022-11-24T06:01:14.003Z,8.50
2022-11-24T06:03:42.635Z,8.50
2022-11-24T06:06:12.128Z,8.50
2022-11-24T06:08:40.508Z,8.50
2022-11-24T06:11:18.683Z,8.50
2022-11-24T06:13:48.657Z,8.50
2022-11-24T06:16:18.213Z,8.50
2022-11-24T06:18:46.506Z,8.50
2022-11-24T06:21:17.254Z,8.40
2022-11-24T06:23:48.394Z,8.40
2022-11-24T06:26:17.896Z,8.50
2022-11-24T06:28:46.569Z,8.40
2022-11-24T06:31:14.779Z,8.30
2022-11-24T06:33:42.915Z,8.30
2022-11-24T06:36:14.600Z,8.40
2022-11-24T06:38:44.256Z,8.40
2022-11-24T06:41:14.366Z,8.40
2022-11-24T06:43:42.711Z,8.40
2022-11-24T06:46:11.083Z,8.30
2022-11-24T06:48:39.811Z,8.20
2022-11-24T06:51:11.892Z,8.30
2022-11-24T06:53:41.473Z,8.20
2022-11-24T06:56:16.743Z,8.30
2022-11-24T06:58:47.267Z,8.30
2022-11-24T07:01:17.098Z,8.40
2022-11-24T07:03:45.543Z,8.30
2022-11-24T07:06:14.097Z,8.30
2022-11-24T07:08:42.884Z,8.20
2022-11-24T07:11:15.556Z,8.30
2022-11-24T07:13:44.657Z,8.30
2022-11-24T07:16:15.874Z,8.30
2022-11-24T07:18:44.345Z,8.30
2022-11-24T07:21:12.837Z,8.20
2022-11-24T07:23:41.016Z,8.20
2022-11-24T07:26:10.807Z,8.20
2022-11-24T07:28:40.486Z,8.20
2022-11-24T07:31:09.864Z,8.30
2022-11-24T07:33:38.407Z,8.40
2022-11-24T07:36:08.501Z,8.40
2022-11-24T07:38:37.021Z,8.40
2022-11-24T07:41:07.070Z,8.30
2022-11-24T07:43:36.801Z,8.40
2022-11-24T07:46:07.698Z,8.50
2022-11-24T07:48:35.802Z,8.60
2022-11-24T07:51:05.575Z,8.80
2022-11-24T07:53:35.030Z,8.90
2022-11-24T07:56:04.797Z,9.10
2022-11-24T07:58:36.410Z,9.30
2022-11-24T08:01:13.147Z,9.60
2022-11-24T08:03:41.835Z,9.70
2022-11-24T08:06:30.288Z,9.90
2022-11-24T08:09:00.055Z,10.10
2022-11-24T08:11:28.784Z,10.10
2022-11-24T08:13:56.922Z,10.30
2022-11-24T08:16:27.643Z,10.50
2022-11-24T08:18:57.092Z,10.60
2022-11-24T08:21:25.180Z,10.90
2022-11-24T08:23:56.846Z,11.10
2022-11-24T08:26:25.793Z,11.30
2022-11-24T08:28:56.450Z,11.50
2022-11-24T08:31:32.976Z,11.70
2022-11-24T08:34:02.370Z,11.90
2022-11-24T08:36:30.803Z,12.00
2022-11-24T08:39:01.406Z,12.20
2022-11-24T08:41:30.652Z,12.40
2022-11-24T08:43:59.228Z,12.50
2022-11-24T08:46:28.792Z,12.60
2022-11-24T08:48:57.539Z,12.70
2022-11-24T08:51:27.206Z,12.80
2022-11-24T08:53:57.340Z,13.00
2022-11-24T08:56:26.659Z,13.10
2022-11-24T08:58:55.441Z,13.20
2022-11-24T09:01:24.814Z,13.40
2022-11-24T09:03:54.868Z,13.60
2022-11-24T09:06:24.895Z,13.80
2022-11-24T09:08:54.599Z,13.80
2022-11-24T09:11:23.485Z,14.00
2022-11-24T09:13:52.461Z,14.20
2022-11-24T09:16:22.757Z,14.20
2022-11-24T09:18:58.102Z,14.30
2022-11-24T09:21:26.250Z,14.40
2022-11-24T09:23:55.424Z,14.60
2022-11-24T09:26:26.128Z,14.80
2022-11-24T09:28:56.241Z,14.90
2022-11-24T09:31:26.094Z,14.80
2022-11-24T09:33:56.461Z,14.90
2022-11-24T09:36:25.671Z,15.00
2022-11-24T09:38:54.343Z,15.00
2022-11-24T09:41:41.201Z,15.20
2022-11-24T09:44:18.438Z,15.40
2022-11-24T09:46:55.512Z,15.50
2022-11-24T09:49:31.637Z,15.70
2022-11-24T09:52:03.947Z,15.90
2022-11-24T09:54:34.022Z,16.00
2022-11-24T09:57:05.964Z,16.20
2022-11-24T09:59:34.778Z,16.40
2022-11-24T10:02:03.081Z,16.50
2022-11-24T10:04:38.941Z,16.40
2022-11-24T10:07:16.198Z,16.40
2022-11-24T10:09:59.491Z,16.50
2022-11-24T10:12:41.887Z,16.60
2022-11-24T10:15:27.593Z,16.60
2022-11-24T10:18:29.854Z,16.70
2022-11-24T10:21:10.897Z,16.70
2022-11-24T10:23:55.857Z,16.80
2022-11-24T10:26:33.920Z,16.70
2022-11-24T10:29:08.851Z,16.80
2022-11-24T10:31:40.033Z,16.80
2022-11-24T10:34:14.878Z,16.80
2022-11-24T10:36:53.290Z,16.60
2022-11-24T10:39:24.782Z,16.50
2022-11-24T10:41:59.700Z,16.50
2022-11-24T10:44:27.860Z,16.50
2022-11-24T10:46:56.299Z,16.50
2022-11-24T10:49:29.245Z,16.50
2022-11-24T10:52:07.068Z,16.60
2022-11-24T10:54:37.012Z,16.50
2022-11-24T10:57:05.409Z,16.50
2022-11-24T10:59:38.400Z,16.50
2022-11-24T11:02:29.169Z,16.50
2022-11-24T11:04:57.673Z,16.50
2022-11-24T11:07:28.091Z,16.60
2022-11-24T11:10:29.022Z,16.50
2022-11-24T11:12:57.399Z,16.50
2022-11-24T11:15:30.012Z,16.60
2022-11-24T11:18:00.291Z,16.70
2022-11-24T11:20:31.644Z,16.60
2022-11-24T11:23:04.271Z,16.60
2022-11-24T11:25:35.763Z,16.70
2022-11-24T11:28:28.047Z,16.70
2022-11-24T11:34:08.388Z,16.50
2022-11-24T11:36:43.267Z,16.20
2022-11-24T11:39:23.091Z,16.30
2022-11-24T11:41:54.465Z,16.40
2022-11-24T11:44:33.810Z,16.20
2022-11-24T11:47:13.495Z,16.20
2022-11-24T11:49:42.126Z,16.00
2022-11-24T11:52:27.521Z,15.80
2022-11-24T11:55:12.732Z,15.40
2022-11-24T11:57:52.190Z,15.00
2022-11-24T12:00:22.521Z,14.70
2022-11-24T12:03:09.835Z,14.50
2022-11-24T12:05:48.742Z,14.60
2022-11-24T12:08:49.564Z,14.60
2022-11-24T12:11:28.678Z,14.50
2022-11-24T12:14:12.070Z,14.50
2022-11-24T12:16:49.042Z,14.50
2022-11-24T12:19:39.826Z,14.70
2022-11-24T12:22:16.630Z,14.70
2022-11-24T12:24:53.041Z,14.50
2022-11-24T12:27:34.520Z,14.50
2022-11-24T12:30:14.597Z,14.50
2022-11-24T12:33:07.395Z,14.40
2022-11-24T12:35:39.995Z,14.30
2022-11-24T12:38:25.709Z,14.20
2022-11-24T12:44:05.214Z,14.10
2022-11-24T12:46:40.341Z,14.10
2022-11-24T12:49:20.368Z,14.20
2022-11-24T12:51:52.599Z,14.20
2022-11-24T12:54:22.448Z,14.10
2022-11-24T12:56:54.807Z,13.90
2022-11-24T12:59:38.934Z,13.80
2022-11-24T13:02:22.442Z,13.70
2022-11-24T13:04:56.351Z,13.60
2022-11-24T13:07:38.412Z,13.50
2022-11-24T13:13:17.900Z,13.50
2022-11-24T13:19:10.420Z,13.40
2022-11-24T13:22:01.738Z,13.30
2022-11-24T13:24:32.039Z,13.20
2022-11-24T13:27:43.618Z,13.00
2022-11-24T13:30:53.905Z,12.70
2022-11-24T13:33:39.862Z,12.80
2022-11-24T13:36:33.477Z,12.60
2022-11-24T13:39:02.742Z,12.60
2022-11-24T13:42:42.403Z,12.70
2022-11-24T13:45:02.011Z,12.60
2022-11-24T13:47:42.313Z,12.50
2022-11-24T13:50:25.683Z,12.50
2022-11-24T13:53:07.715Z,12.40
2022-11-24T13:55:39.856Z,12.40
2022-11-24T13:58:35.602Z,12.40
2022-11-24T14:01:22.988Z,12.40
2022-11-24T14:04:35.257Z,12.30
2022-11-24T14:07:09.778Z,12.40
2022-11-24T14:09:43.334Z,12.30
2022-11-24T14:12:18.041Z,12.30
2022-11-24T14:14:47.820Z,12.40
2022-11-24T14:17:19.047Z,12.40
2022-11-24T14:19:49.180Z,12.30
2022-11-24T14:22:21.512Z,12.30
2022-11-24T14:24:58.484Z,12.20
2022-11-24T14:27:31.408Z,12.20
2022-11-24T14:30:02.005Z,12.20
2022-11-24T14:32:30.381Z,12.30
2022-11-24T14:34:58.708Z,12.20
2022-11-24T14:37:28.544Z,12.00
2022-11-24T14:39:56.673Z,11.80
2022-11-24T14:42:27.320Z,11.80
2022-11-24T14:44:58.707Z,11.70
2022-11-24T14:47:31.826Z,11.70
2022-11-24T14:50:11.586Z,11.70
2022-11-24T14:52:47.467Z,11.60
2022-11-24T14:55:27.902Z,11.60
2022-11-24T14:57:56.243Z,11.60
2022-11-24T15:00:31.073Z,11.70
2022-11-24T15:03:17.062Z,11.70
2022-11-24T15:05:53.421Z,11.60
2022-11-24T15:08:24.068Z,11.70
2022-11-24T15:10:58.488Z,11.70
2022-11-24T15:13:27.283Z,11.60
2022-11-24T15:16:02.347Z,11.60
2022-11-24T15:18:37.595Z,11.60
2022-11-24T15:21:05.834Z,11.60
2022-11-24T15:23:36.289Z,11.50
2022-11-24T15:26:36.675Z,11.70
2022-11-24T15:29:06.822Z,11.50
2022-11-24T15:31:35.243Z,11.30
2022-11-24T15:34:03.557Z,11.40
2022-11-24T15:36:31.890Z,11.20
2022-11-24T15:39:01.604Z,11.20
2022-11-24T15:41:32.028Z,11.10
2022-11-24T15:44:00.919Z,11.20
2022-11-24T15:46:30.236Z,11.20
2022-11-24T15:48:58.524Z,11.10
2022-11-24T15:51:27.908Z,11.10
2022-11-24T15:54:00.946Z,11.00
2022-11-24T15:56:34.110Z,11.00
2022-11-24T15:59:03.473Z,10.90
2022-11-24T16:01:33.316Z,10.80
2022-11-24T16:04:01.655Z,10.70
2022-11-24T16:06:30.111Z,10.60
2022-11-24T16:08:59.107Z,10.70
2022-11-24T16:11:27.588Z,10.80
2022-11-24T16:13:57.694Z,10.70
2022-11-24T16:16:26.236Z,10.60
2022-11-24T16:18:54.468Z,10.50
2022-11-24T16:21:23.348Z,10.50
2022-11-24T16:23:51.865Z,10.60
2022-11-24T16:26:20.017Z,10.60
2022-11-24T16:28:48.382Z,10.60
2022-11-24T16:31:19.312Z,10.40
2022-11-24T16:33:47.774Z,10.40
2022-11-24T16:36:16.140Z,10.40
2022-11-24T16:38:44.817Z,10.30
2022-11-24T16:41:13.047Z,10.30
2022-11-24T16:43:41.606Z,10.30
2022-11-24T16:46:25.676Z,10.30
2022-11-24T16:48:56.120Z,10.30
2022-11-24T16:51:28.723Z,10.10
2022-11-24T16:54:00.908Z,10.20
2022-11-24T16:56:30.521Z,10.10
2022-11-24T16:58:58.711Z,10.10
2022-11-24T17:01:29.969Z,10.00
2022-11-24T17:03:58.281Z,10.00
2022-11-24T17:06:26.877Z,10.00
2022-11-24T17:08:56.910Z,10.00
2022-11-24T17:11:26.919Z,9.90
2022-11-24T17:13:55.258Z,9.80
2022-11-24T17:16:25.531Z,9.80
2022-11-24T17:18:55.502Z,9.80
2022-11-24T17:21:25.636Z,9.80
2022-11-24T17:23:55.872Z,9.70
2022-11-24T17:26:27.756Z,9.80
2022-11-24T17:28:56.634Z,9.70
2022-11-24T17:31:26.716Z,9.60
2022-11-24T17:33:57.759Z,9.60
2022-11-24T17:36:26.701Z,9.70
2022-11-24T17:38:55.090Z,9.90
2022-11-24T17:41:23.925Z,9.90
2022-11-24T17:43:52.908Z,9.80
2022-11-24T17:46:21.478Z,9.80
2022-11-24T17:48:49.923Z,9.80
2022-11-24T17:51:21.097Z,9.80
2022-11-24T17:53:52.295Z,9.80
2022-11-24T17:56:23.501Z,9.80
2022-11-24T17:58:55.563Z,9.90
2022-11-24T18:01:24.367Z,9.90
2022-11-24T18:03:54.150Z,9.80
2022-11-24T18:06:25.613Z,9.90
2022-11-24T18:08:55.103Z,9.80
2022-11-24T18:11:30.680Z,9.90
2022-11-24T18:14:03.644Z,9.90
2022-11-24T18:16:33.408Z,9.90
2022-11-24T18:19:11.443Z,9.80
2022-11-24T18:21:42.472Z,9.90
2022-11-24T18:24:12.708Z,9.90
2022-11-24T18:26:41.835Z,9.90
2022-11-24T18:29:10.908Z,9.90
2022-11-24T18:31:39.844Z,10.00
2022-11-24T18:34:08.806Z,10.00
2022-11-24T18:36:37.344Z,9.90
2022-11-24T18:39:08.459Z,9.90
2022-11-24T18:41:37.139Z,9.90
2022-11-24T18:44:08.473Z,9.90
2022-11-24T18:46:37.611Z,10.00
2022-11-24T18:49:07.148Z,9.90
2022-11-24T18:51:35.764Z,9.90
2022-11-24T18:54:05.474Z,9.90
2022-11-24T18:56:35.241Z,9.90
2022-11-24T18:59:03.643Z,9.80
2022-11-24T19:01:32.453Z,9.90
2022-11-24T19:04:03.033Z,9.90
2022-11-24T19:06:33.959Z,10.00
2022-11-24T19:09:04.672Z,9.90
2022-11-24T19:11:35.659Z,9.90
2022-11-24T19:14:05.499Z,9.90
2022-11-24T19:16:34.067Z,9.90
2022-11-24T19:19:03.139Z,10.00
2022-11-24T19:21:33.094Z,10.00
2022-11-24T19:24:05.404Z,10.00
2022-11-24T19:26:36.149Z,10.00
2022-11-24T19:29:05.225Z,10.00
2022-11-24T19:31:33.925Z,10.00
2022-11-24T19:34:03.231Z,10.00
2022-11-24T19:36:31.503Z,10.00
2022-11-24T19:39:00.299Z,10.10
2022-11-24T19:41:30.291Z,10.10
2022-11-24T19:44:00.738Z,10.10
2022-11-24T19:46:30.231Z,10.10
2022-11-24T19:49:01.157Z,10.10
2022-11-24T19:51:31.794Z,10.20
2022-11-24T19:54:01.050Z,10.20
2022-11-24T19:56:31.689Z,10.20
2022-11-24T19:59:01.522Z,10.30
2022-11-24T20:01:31.601Z,10.30
2022-11-24T20:04:01.374Z,10.40
2022-11-24T20:06:31.831Z,10.30
2022-11-24T20:09:01.063Z,10.30
2022-11-24T20:11:30.318Z,10.40
2022-11-24T20:14:00.119Z,10.30
2022-11-24T20:16:30.055Z,10.50
2022-11-24T20:19:00.284Z,10.50
2022-11-24T20:21:31.204Z,10.50
2022-11-24T20:24:01.294Z,10.60
2022-11-24T20:26:32.091Z,10.70
2022-11-24T20:29:02.810Z,10.70
2022-11-24T20:31:33.097Z,10.70
2022-11-24T20:34:02.519Z,10.80
2022-11-24T20:36:32.662Z,10.80
2022-11-24T20:39:01.908Z,10.90
2022-11-24T20:41:32.010Z,10.90
2022-11-24T20:44:04.042Z,11.00
2022-11-24T20:46:34.890Z,10.90
2022-11-24T20:49:04.665Z,11.00
2022-11-24T20:51:35.037Z,10.90
2022-11-24T20:54:05.942Z,11.00
2022-11-24T20:56:36.689Z,11.00
2022-11-24T20:59:06.790Z,11.10
2022-11-24T21:01:38.444Z,11.00
2022-11-24T21:04:08.764Z,11.00
2022-11-24T21:06:37.663Z,11.00
2022-11-24T21:09:06.976Z,11.10
2022-11-24T21:11:35.685Z,11.10
2022-11-24T21:14:05.626Z,11.10
2022-11-24T21:16:34.853Z,11.00
2022-11-24T21:19:05.286Z,11.00
2022-11-24T21:21:35.615Z,11.00
2022-11-24T21:24:04.969Z,11.20
2022-11-24T21:26:35.480Z,11.20
2022-11-24T21:29:05.583Z,11.30
2022-11-24T21:31:36.914Z,11.20
2022-11-24T21:34:06.789Z,11.30
2022-11-24T21:36:35.595Z,11.20
2022-11-24T21:39:04.863Z,11.30
2022-11-24T21:41:34.637Z,11.20
2022-11-24T21:44:03.101Z,11.20
2022-11-24T21:46:40.414Z,11.30
2022-11-24T21:49:10.793Z,11.20
2022-11-24T21:51:38.988Z,11.10
2022-11-24T21:54:07.666Z,11.20
2022-11-24T21:56:35.956Z,11.20
2022-11-24T21:59:04.352Z,11.10
2022-11-24T22:01:33.898Z,11.10
2022-11-24T22:04:02.522Z,11.20
2022-11-24T22:06:30.836Z,11.20
2022-11-24T22:08:59.086Z,11.20
2022-11-24T22:11:27.402Z,11.20
2022-11-24T22:13:55.876Z,11.10
2022-11-24T22:16:25.670Z,11.10
2022-11-24T22:18:55.521Z,11.00
2022-11-24T22:21:30.138Z,11.00
2022-11-24T22:23:58.715Z,11.10
2022-11-24T22:26:27.847Z,11.10
2022-11-24T22:28:57.175Z,11.20
2022-11-24T22:31:26.938Z,11.20
2022-11-24T22:33:57.560Z,11.20
2022-11-24T22:36:27.105Z,11.20
2022-11-24T22:38:56.290Z,11.20
2022-11-24T22:41:25.303Z,11.20
2022-11-24T22:43:53.532Z,11.20
2022-11-24T22:46:23.415Z,11.20
2022-11-24T22:48:53.966Z,11.30
2022-11-24T22:51:25.987Z,11.30
2022-11-24T22:53:56.060Z,11.30
2022-11-24T22:56:25.213Z,11.40
2022-11-24T22:58:53.712Z,11.40
2022-11-24T23:01:23.853Z,11.40
2022-11-24T23:03:54.779Z,11.40
2022-11-24T23:06:25.779Z,11.50
2022-11-24T23:08:54.386Z,11.50
2022-11-24T23:11:31.570Z,11.50
2022-11-24T23:14:01.557Z,11.50
2022-11-24T23:16:30.684Z,11.50
2022-11-24T23:18:59.291Z,11.40
2022-11-24T23:21:31.004Z,11.40
2022-11-24T23:24:01.447Z,11.50
2022-11-24T23:26:31.850Z,11.50
2022-11-24T23:29:00.100Z,11.50
2022-11-24T23:31:29.725Z,11.40
2022-11-24T23:33:59.318Z,11.30
2022-11-24T23:36:29.728Z,11.30
2022-11-24T23:39:02.344Z,11.20
2022-11-24T23:41:32.424Z,11.10
2022-11-24T23:44:00.862Z,11.10
2022-11-24T23:46:29.895Z,11.00
2022-11-24T23:48:58.429Z,10.90
2022-11-24T23:51:29.897Z,10.70
2022-11-24T23:53:59.088Z,10.70
2022-11-24T23:56:28.861Z,10.70
2022-11-24T23:58:57.018Z,10.70
